createdAt,value
2022-12-09T00:03:23.084Z,40.90
2022-12-09T00:08:25.971Z,38.20
2022-12-09T00:13:32.640Z,44.90
2022-12-09T00:18:35.370Z,49.20
2022-12-09T00:23:37.110Z,38.90
2022-12-09T00:28:40.025Z,37.30
2022-12-09T00:33:42.302Z,39.40
2022-12-09T00:38:46.204Z,37.90
2022-12-09T00:43:48.436Z,41.40
2022-12-09T00:48:50.912Z,40.60
2022-12-09T00:53:54.924Z,40.30
2022-12-09T00:58:58.674Z,38.50
2022-12-09T01:04:02.773Z,37.70
2022-12-09T01:09:05.200Z,37.00
2022-12-09T01:14:07.328Z,30.60
2022-12-09T01:19:13.319Z,31.80
2022-12-09T01:24:15.437Z,25.20
2022-12-09T01:29:17.146Z,24.20
2022-12-09T01:34:19.340Z,26.50
2022-12-09T01:39:21.209Z,30.20
2022-12-09T01:44:25.385Z,31.60
2022-12-09T01:49:34.315Z,34.10
2022-12-09T01:54:37.672Z,41.00
2022-12-09T01:59:40.329Z,35.50
2022-12-09T02:04:45.638Z,41.70
2022-12-09T02:09:53.473Z,35.20
2022-12-09T02:15:06.783Z,26.70
2022-12-09T02:20:21.605Z,37.20
2022-12-09T02:25:34.352Z,31.10
2022-12-09T02:30:56.753Z,35.20
2022-12-09T02:36:05.783Z,37.40
2022-12-09T02:41:15.266Z,33.30
2022-12-09T02:46:21.881Z,37.20
2022-12-09T02:51:27.300Z,34.50
2022-12-09T02:56:29.570Z,34.40
2022-12-09T03:01:43.928Z,39.00
2022-12-09T03:06:53.230Z,39.40
2022-12-09T03:11:59.524Z,34.20
2022-12-09T03:17:12.900Z,34.20
2022-12-09T03:22:18.541Z,37.40
2022-12-09T03:27:25.643Z,29.20
2022-12-09T03:32:29.893Z,36.00
2022-12-09T03:37:33.213Z,25.80
2022-12-09T03:42:42.884Z,44.90
2022-12-09T03:47:44.728Z,33.20
2022-12-09T03:52:54.011Z,49.10
2022-12-09T03:58:00.297Z,38.40
2022-12-09T04:03:02.086Z,45.10
2022-12-09T04:08:04.159Z,44.20
2022-12-09T04:13:06.305Z,36.70
2022-12-09T04:18:08.182Z,47.60
2022-12-09T04:23:10.564Z,53.90
2022-12-09T04:28:12.644Z,52.60
2022-12-09T04:33:14.649Z,51.60
2022-12-09T04:38:16.341Z,64.10
2022-12-09T04:43:18.235Z,54.50
2022-12-09T04:48:20.472Z,63.20
2022-12-09T04:53:23.292Z,71.20
2022-12-09T04:58:25.427Z,62.70
2022-12-09T05:03:27.453Z,66.40
2022-12-09T05:08:31.656Z,61.60
2022-12-09T05:13:34.312Z,68.90
2022-12-09T05:18:36.829Z,74.10
2022-12-09T05:23:39.530Z,79.00
2022-12-09T05:28:42.370Z,73.90
2022-12-09T05:33:45.823Z,86.30
2022-12-09T05:38:48.957Z,91.90
2022-12-09T05:43:52.128Z,87.60
2022-12-09T05:48:54.800Z,86.30
2022-12-09T05:54:01.022Z,97.30
2022-12-09T05:59:03.317Z,88.30
2022-12-09T06:04:05.643Z,74.40
2022-12-09T06:09:12.219Z,100.90
2022-12-09T06:14:14.439Z,99.20
2022-12-09T06:19:16.685Z,102.60
2022-12-09T06:24:18.844Z,117.80
2022-12-09T06:29:21.266Z,106.40
2022-12-09T06:34:23.243Z,110.30
2022-12-09T06:39:25.200Z,112.60
2022-12-09T06:44:27.007Z,120.90
2022-12-09T06:49:28.721Z,118.40
2022-12-09T06:54:31.059Z,117.70
2022-12-09T06:59:32.962Z,135.30
2022-12-09T07:04:35.255Z,135.40
2022-12-09T07:09:37.808Z,137.50
2022-12-09T07:14:39.946Z,137.10
2022-12-09T07:19:41.892Z,132.20
2022-12-09T07:24:44.592Z,126.70
2022-12-09T07:29:47.237Z,124.60
2022-12-09T07:34:49.477Z,137.50
2022-12-09T07:39:51.436Z,160.20
2022-12-09T07:44:53.460Z,146.80
2022-12-09T07:49:56.812Z,157.20
2022-12-09T07:55:01.623Z,176.00
2022-12-09T08:00:04.929Z,170.50
2022-12-09T08:05:13.801Z,165.30
2022-12-09T08:10:16.612Z,170.00
2022-12-09T08:15:20.312Z,151.50
2022-12-09T08:20:28.876Z,171.60
2022-12-09T08:25:31.466Z,167.50
2022-12-09T08:30:33.314Z,167.20
2022-12-09T08:35:38.021Z,170.30
2022-12-09T08:40:40.786Z,185.90
2022-12-09T08:45:42.726Z,187.90
2022-12-09T08:50:45.375Z,211.60
2022-12-09T08:55:47.647Z,188.60
2022-12-09T09:00:50.419Z,199.60
2022-12-09T09:05:52.397Z,188.60
2022-12-09T09:10:55.105Z,241.70
2022-12-09T09:15:57.094Z,213.90
2022-12-09T09:20:59.734Z,224.60
2022-12-09T09:26:03.499Z,230.80
2022-12-09T09:31:07.692Z,198.50
2022-12-09T09:36:20.984Z,193.50
2022-12-09T09:41:27.226Z,195.40
2022-12-09T09:46:44.224Z,212.20
2022-12-09T09:51:47.615Z,212.00
2022-12-09T09:57:39.084Z,219.40
2022-12-09T10:03:04.972Z,240.90
2022-12-09T10:08:28.069Z,214.30
2022-12-09T10:13:44.224Z,244.90
2022-12-09T10:19:07.655Z,300.50
2022-12-09T10:24:26.201Z,305.80
2022-12-09T10:29:56.789Z,245.00
2022-12-09T10:35:00.375Z,257.90
2022-12-09T10:40:36.237Z,218.00
2022-12-09T10:51:24.795Z,220.20
2022-12-09T10:56:32.640Z,216.60
2022-12-09T11:01:51.659Z,169.00
2022-12-09T11:07:05.229Z,156.70
2022-12-09T11:12:17.610Z,240.20
2022-12-09T11:17:39.971Z,250.50
2022-12-09T11:22:44.139Z,222.80
2022-12-09T11:27:54.608Z,189.10
2022-12-09T11:32:58.775Z,178.80
2022-12-09T11:38:13.326Z,162.00
2022-12-09T11:43:15.279Z,167.00
2022-12-09T11:48:35.015Z,191.90
2022-12-09T11:53:41.189Z,145.50
2022-12-09T11:58:48.648Z,137.50
2022-12-09T12:04:00.654Z,142.20
2022-12-09T12:09:11.731Z,204.10
2022-12-09T12:14:22.976Z,131.40
2022-12-09T12:19:37.370Z,133.70
2022-12-09T12:24:46.359Z,128.00
2022-12-09T12:30:10.728Z,132.20
2022-12-09T12:35:30.544Z,97.10
2022-12-09T12:40:38.765Z,73.90
2022-12-09T12:46:17.191Z,97.90
2022-12-09T12:51:37.257Z,110.80
2022-12-09T12:57:09.286Z,66.20
2022-12-09T13:02:22.905Z,71.10
2022-12-09T13:07:38.629Z,83.50
2022-12-09T13:12:56.587Z,71.70
2022-12-09T13:18:07.450Z,83.30
2022-12-09T13:23:39.897Z,89.00
2022-12-09T13:28:54.857Z,61.30
2022-12-09T13:34:15.593Z,67.40
2022-12-09T13:39:39.208Z,80.40
2022-12-09T13:44:41.032Z,69.40
2022-12-09T13:49:51.571Z,73.10
2022-12-09T13:54:53.412Z,63.10
2022-12-09T14:00:00.468Z,60.70
2022-12-09T14:05:26.161Z,67.70
2022-12-09T14:10:47.821Z,55.70
2022-12-09T14:16:28.137Z,64.90
2022-12-09T14:26:47.810Z,46.70
2022-12-09T14:31:55.426Z,58.00
2022-12-09T14:37:41.570Z,49.60
2022-12-09T14:43:05.193Z,47.90
2022-12-09T14:48:15.021Z,53.60
2022-12-09T14:53:25.836Z,44.30
2022-12-09T14:58:27.928Z,31.90
2022-12-09T15:03:35.451Z,36.50
2022-12-09T15:08:40.977Z,36.70
2022-12-09T15:13:47.373Z,37.30
2022-12-09T15:18:51.314Z,28.20
2022-12-09T15:23:53.369Z,33.70
2022-12-09T15:28:56.617Z,35.70
2022-12-09T15:34:00.770Z,43.30
2022-12-09T15:39:07.254Z,41.30
2022-12-09T15:44:14.291Z,35.80
2022-12-09T15:49:23.172Z,30.90
2022-12-09T15:54:36.027Z,42.80
2022-12-09T15:59:55.340Z,49.70
2022-12-09T16:05:02.908Z,57.40
2022-12-09T16:10:08.113Z,60.60
2022-12-09T16:15:14.243Z,44.90
2022-12-09T16:20:41.230Z,66.20
2022-12-09T16:25:49.281Z,52.60
2022-12-09T16:30:55.730Z,70.10
2022-12-09T16:35:59.180Z,69.30
2022-12-09T16:41:04.273Z,66.40
2022-12-09T16:46:15.339Z,54.60
2022-12-09T16:51:23.899Z,65.30
2022-12-09T16:56:28.576Z,88.40
2022-12-09T17:01:35.626Z,78.10
2022-12-09T17:06:37.351Z,55.70
2022-12-09T17:11:42.900Z,47.80
2022-12-09T17:16:48.873Z,79.60
2022-12-09T17:21:55.348Z,39.90
2022-12-09T17:26:57.016Z,38.00
2022-12-09T17:31:58.789Z,34.20
2022-12-09T17:37:00.502Z,34.40
2022-12-09T17:42:02.239Z,35.90
2022-12-09T17:47:03.931Z,39.30
2022-12-09T17:52:05.851Z,30.70
2022-12-09T17:57:07.543Z,31.00
2022-12-09T18:02:11.189Z,41.30
2022-12-09T18:07:12.905Z,47.70
2022-12-09T18:12:14.592Z,50.50
2022-12-09T18:17:16.393Z,54.80
2022-12-09T18:22:18.134Z,61.70
2022-12-09T18:27:19.855Z,66.20
2022-12-09T18:32:21.592Z,70.60
2022-12-09T18:37:25.735Z,71.40
2022-12-09T18:42:27.405Z,52.10
2022-12-09T18:47:29.195Z,54.10
2022-12-09T18:52:30.921Z,49.20
2022-12-09T18:57:33.232Z,68.50
2022-12-09T19:02:34.986Z,61.50
2022-12-09T19:07:36.818Z,64.70
2022-12-09T19:12:46.991Z,84.70
2022-12-09T19:17:50.066Z,78.70
2022-12-09T19:22:52.292Z,66.00
2022-12-09T19:27:55.192Z,78.80
2022-12-09T19:32:56.928Z,67.00
2022-12-09T19:38:01.573Z,76.20
2022-12-09T19:43:03.899Z,80.20
2022-12-09T19:48:05.749Z,68.40
2022-12-09T19:53:08.870Z,75.00
2022-12-09T19:58:10.588Z,84.50
2022-12-09T20:03:12.382Z,76.60
2022-12-09T20:08:14.159Z,79.30
2022-12-09T20:13:16.383Z,87.80
2022-12-09T20:18:18.151Z,93.70
2022-12-09T20:23:19.886Z,71.90
2022-12-09T20:28:21.614Z,109.40
2022-12-09T20:33:23.263Z,83.20
2022-12-09T20:38:24.947Z,91.70
2022-12-09T20:43:26.712Z,85.60
2022-12-09T20:48:28.397Z,75.40
2022-12-09T20:53:30.577Z,79.10
2022-12-09T20:58:32.293Z,64.80
2022-12-09T21:03:34.279Z,86.10
2022-12-09T21:08:37.456Z,59.00
2022-12-09T21:13:42.356Z,66.10
2022-12-09T21:18:44.104Z,69.20
2022-12-09T21:23:46.918Z,75.70
2022-12-09T21:28:49.219Z,81.50
2022-12-09T21:33:52.511Z,71.50
2022-12-09T21:38:54.441Z,65.90
2022-12-09T21:43:57.605Z,55.70
2022-12-09T21:49:03.967Z,52.50
2022-12-09T21:54:06.296Z,56.60
2022-12-09T21:59:09.900Z,64.40
2022-12-09T22:04:16.096Z,73.60
2022-12-09T22:09:20.702Z,83.10
2022-12-09T22:14:24.109Z,78.60
2022-12-09T22:19:26.610Z,77.90
2022-12-09T22:24:28.335Z,77.10
2022-12-09T22:29:30.107Z,80.50
2022-12-09T22:34:36.986Z,81.20
2022-12-09T22:39:38.717Z,73.50
2022-12-09T22:44:40.975Z,79.00
2022-12-09T22:49:42.684Z,70.10
2022-12-09T22:54:44.529Z,57.50
2022-12-09T22:59:46.215Z,54.00
2022-12-09T23:04:47.908Z,55.90
2022-12-09T23:09:50.261Z,55.00
2022-12-09T23:14:51.967Z,58.70
2022-12-09T23:19:53.674Z,49.60
2022-12-09T23:24:55.381Z,54.30
2022-12-09T23:29:57.166Z,49.70
2022-12-09T23:35:03.075Z,48.70
2022-12-09T23:40:08.672Z,45.80
2022-12-09T23:45:10.676Z,50.20
2022-12-09T23:50:12.333Z,49.50
2022-12-09T23:55:13.990Z,56.60
